Terminal Aerodrome Forecast
Issued by NWS Shreveport, LA

Home | Current Version | Previous Version | Text Only | Print | Product List | Glossary On
Versions: 1 2 3 4 5 6 7 8 9 10 11 12 13 14
000
FTUS44 KSHV 280520
TAFGGG
TAF
KGGG 280520Z 2806/2906 12005KT P6SM SKC
      TEMPO 2810/2814 5SM BR SCT015
     FM281400 15004KT P6SM SCT025 BKN040
     FM281800 15009KT P6SM SCT050 SCT250
     FM290000 14007KT P6SM SKC=

USA.gov is the U.S. government's official web portal to all federal, state and local government web resources and services.